sensor_id;sensor_type;location;lat;lon;timestamp;P1;durP1;ratioP1;P2;durP2;ratioP2
2576;SDS011;1298;51.252;6.802;2022-08-19T00:01:43;71.20;;;36.15;;
2576;SDS011;1298;51.252;6.802;2022-08-19T00:04:30;72.30;;;36.75;;
2576;SDS011;1298;51.252;6.802;2022-08-19T00:07:19;72.18;;;36.72;;
2576;SDS011;1298;51.252;6.802;2022-08-19T00:10:07;70.85;;;36.42;;
2576;SDS011;1298;51.252;6.802;2022-08-19T00:12:54;69.75;;;35.75;;
2576;SDS011;1298;51.252;6.802;2022-08-19T00:15:39;67.93;;;36.40;;
2576;SDS011;1298;51.252;6.802;2022-08-19T00:18:28;66.50;;;35.55;;
2576;SDS011;1298;51.252;6.802;2022-08-19T00:21:13;68.75;;;36.08;;
2576;SDS011;1298;51.252;6.802;2022-08-19T00:23:59;67.78;;;36.33;;
2576;SDS011;1298;51.252;6.802;2022-08-19T00:26:45;65.93;;;37.10;;
2576;SDS011;1298;51.252;6.802;2022-08-19T00:29:31;65.47;;;35.53;;
2576;SDS011;1298;51.252;6.802;2022-08-19T00:32:17;69.55;;;36.08;;
2576;SDS011;1298;51.252;6.802;2022-08-19T00:35:02;71.45;;;36.70;;
2576;SDS011;1298;51.252;6.802;2022-08-19T00:37:48;71.40;;;35.53;;
2576;SDS011;1298;51.252;6.802;2022-08-19T00:40:34;71.75;;;35.85;;
2576;SDS011;1298;51.252;6.802;2022-08-19T00:43:22;71.95;;;36.33;;
2576;SDS011;1298;51.252;6.802;2022-08-19T00:46:09;71.78;;;36.90;;
2576;SDS011;1298;51.252;6.802;2022-08-19T00:48:54;69.22;;;35.60;;
2576;SDS011;1298;51.252;6.802;2022-08-19T00:51:41;68.50;;;36.15;;
2576;SDS011;1298;51.252;6.802;2022-08-19T00:54:29;60.72;;;35.28;;
2576;SDS011;1298;51.252;6.802;2022-08-19T00:57:17;66.55;;;35.58;;
2576;SDS011;1298;51.252;6.802;2022-08-19T01:00:09;67.35;;;36.35;;
2576;SDS011;1298;51.252;6.802;2022-08-19T01:02:58;64.15;;;35.70;;
2576;SDS011;1298;51.252;6.802;2022-08-19T01:05:44;61.60;;;35.08;;
2576;SDS011;1298;51.252;6.802;2022-08-19T01:08:31;65.22;;;35.42;;
2576;SDS011;1298;51.252;6.802;2022-08-19T01:11:18;60.45;;;35.20;;
2576;SDS011;1298;51.252;6.802;2022-08-19T01:14:03;60.30;;;34.67;;
2576;SDS011;1298;51.252;6.802;2022-08-19T01:16:51;66.28;;;36.35;;
2576;SDS011;1298;51.252;6.802;2022-08-19T01:19:41;68.30;;;36.15;;
2576;SDS011;1298;51.252;6.802;2022-08-19T01:22:30;68.28;;;35.55;;
2576;SDS011;1298;51.252;6.802;2022-08-19T01:25:20;68.28;;;35.45;;
2576;SDS011;1298;51.252;6.802;2022-08-19T01:28:12;68.90;;;36.58;;
2576;SDS011;1298;51.252;6.802;2022-08-19T01:30:59;68.65;;;36.20;;
2576;SDS011;1298;51.252;6.802;2022-08-19T01:33:45;68.05;;;36.40;;
2576;SDS011;1298;51.252;6.802;2022-08-19T01:36:33;65.82;;;36.38;;
2576;SDS011;1298;51.252;6.802;2022-08-19T01:39:23;60.25;;;35.90;;
2576;SDS011;1298;51.252;6.802;2022-08-19T01:42:12;60.03;;;36.10;;
2576;SDS011;1298;51.252;6.802;2022-08-19T01:44:57;60.38;;;36.38;;
2576;SDS011;1298;51.252;6.802;2022-08-19T01:47:42;61.92;;;35.22;;
2576;SDS011;1298;51.252;6.802;2022-08-19T01:50:29;64.13;;;36.25;;
2576;SDS011;1298;51.252;6.802;2022-08-19T01:53:15;58.70;;;35.25;;
2576;SDS011;1298;51.252;6.802;2022-08-19T01:56:02;61.10;;;35.25;;
2576;SDS011;1298;51.252;6.802;2022-08-19T01:58:49;67.97;;;36.30;;
2576;SDS011;1298;51.252;6.802;2022-08-19T02:01:37;69.15;;;36.28;;
2576;SDS011;1298;51.252;6.802;2022-08-19T02:04:25;68.85;;;35.67;;
2576;SDS011;1298;51.252;6.802;2022-08-19T02:07:11;68.72;;;35.90;;
2576;SDS011;1298;51.252;6.802;2022-08-19T02:09:56;70.50;;;37.03;;
2576;SDS011;1298;51.252;6.802;2022-08-19T02:12:43;69.40;;;36.05;;
2576;SDS011;1298;51.252;6.802;2022-08-19T02:15:29;68.78;;;35.90;;
2576;SDS011;1298;51.252;6.802;2022-08-19T02:18:15;69.50;;;36.40;;
2576;SDS011;1298;51.252;6.802;2022-08-19T02:21:01;68.85;;;35.58;;
2576;SDS011;1298;51.252;6.802;2022-08-19T02:23:47;69.55;;;36.47;;
2576;SDS011;1298;51.252;6.802;2022-08-19T02:26:33;69.78;;;36.40;;
2576;SDS011;1298;51.252;6.802;2022-08-19T02:29:20;68.80;;;36.38;;
2576;SDS011;1298;51.252;6.802;2022-08-19T02:32:05;68.47;;;35.92;;
2576;SDS011;1298;51.252;6.802;2022-08-19T02:34:51;70.40;;;37.45;;
2576;SDS011;1298;51.252;6.802;2022-08-19T02:37:36;67.60;;;36.15;;
2576;SDS011;1298;51.252;6.802;2022-08-19T02:40:39;68.85;;;37.42;;
2576;SDS011;1298;51.252;6.802;2022-08-19T02:43:25;67.43;;;35.67;;
2576;SDS011;1298;51.252;6.802;2022-08-19T02:46:15;69.18;;;37.45;;
2576;SDS011;1298;51.252;6.802;2022-08-19T02:49:06;69.40;;;37.35;;
2576;SDS011;1298;51.252;6.802;2022-08-19T02:51:52;67.63;;;36.53;;
2576;SDS011;1298;51.252;6.802;2022-08-19T02:54:38;68.22;;;36.13;;
2576;SDS011;1298;51.252;6.802;2022-08-19T02:57:23;68.90;;;36.47;;
2576;SDS011;1298;51.252;6.802;2022-08-19T03:00:11;70.07;;;37.65;;
2576;SDS011;1298;51.252;6.802;2022-08-19T03:02:59;70.00;;;36.90;;
2576;SDS011;1298;51.252;6.802;2022-08-19T03:05:44;68.55;;;36.65;;
2576;SDS011;1298;51.252;6.802;2022-08-19T03:08:30;68.55;;;35.85;;
2576;SDS011;1298;51.252;6.802;2022-08-19T03:11:17;69.50;;;36.28;;
2576;SDS011;1298;51.252;6.802;2022-08-19T03:14:04;68.38;;;36.08;;
2576;SDS011;1298;51.252;6.802;2022-08-19T03:16:51;68.68;;;36.45;;
2576;SDS011;1298;51.252;6.802;2022-08-19T03:19:38;70.88;;;37.80;;
2576;SDS011;1298;51.252;6.802;2022-08-19T03:22:24;69.10;;;36.13;;
2576;SDS011;1298;51.252;6.802;2022-08-19T03:25:10;68.93;;;35.88;;
2576;SDS011;1298;51.252;6.802;2022-08-19T03:27:55;69.70;;;37.30;;
2576;SDS011;1298;51.252;6.802;2022-08-19T03:30:41;69.82;;;37.45;;
2576;SDS011;1298;51.252;6.802;2022-08-19T03:33:28;69.78;;;37.78;;
2576;SDS011;1298;51.252;6.802;2022-08-19T03:36:16;70.68;;;37.42;;
2576;SDS011;1298;51.252;6.802;2022-08-19T03:39:04;70.57;;;37.50;;
2576;SDS011;1298;51.252;6.802;2022-08-19T03:41:49;70.95;;;37.72;;
2576;SDS011;1298;51.252;6.802;2022-08-19T03:44:36;69.63;;;37.05;;
2576;SDS011;1298;51.252;6.802;2022-08-19T03:47:22;69.38;;;37.15;;
2576;SDS011;1298;51.252;6.802;2022-08-19T03:50:08;70.60;;;37.78;;
2576;SDS011;1298;51.252;6.802;2022-08-19T03:52:55;70.82;;;38.72;;
2576;SDS011;1298;51.252;6.802;2022-08-19T03:55:41;69.57;;;38.40;;
2576;SDS011;1298;51.252;6.802;2022-08-19T03:58:27;67.60;;;36.33;;
2576;SDS011;1298;51.252;6.802;2022-08-19T04:01:15;68.68;;;37.60;;
2576;SDS011;1298;51.252;6.802;2022-08-19T04:04:03;66.70;;;35.38;;
2576;SDS011;1298;51.252;6.802;2022-08-19T04:06:49;67.85;;;38.22;;
2576;SDS011;1298;51.252;6.802;2022-08-19T04:09:36;67.43;;;37.00;;
2576;SDS011;1298;51.252;6.802;2022-08-19T04:12:22;66.75;;;35.53;;
2576;SDS011;1298;51.252;6.802;2022-08-19T04:15:08;68.75;;;37.22;;
2576;SDS011;1298;51.252;6.802;2022-08-19T04:17:54;67.40;;;35.92;;
2576;SDS011;1298;51.252;6.802;2022-08-19T04:20:43;68.00;;;37.90;;
2576;SDS011;1298;51.252;6.802;2022-08-19T04:23:30;66.75;;;36.60;;
2576;SDS011;1298;51.252;6.802;2022-08-19T04:26:19;67.18;;;36.65;;
2576;SDS011;1298;51.252;6.802;2022-08-19T04:29:08;68.88;;;38.15;;
2576;SDS011;1298;51.252;6.802;2022-08-19T04:31:56;66.75;;;36.13;;
2576;SDS011;1298;51.252;6.802;2022-08-19T04:34:42;68.97;;;37.78;;
2576;SDS011;1298;51.252;6.802;2022-08-19T04:37:27;68.35;;;37.65;;
2576;SDS011;1298;51.252;6.802;2022-08-19T04:40:17;66.55;;;36.33;;
2576;SDS011;1298;51.252;6.802;2022-08-19T04:43:21;67.72;;;37.13;;
2576;SDS011;1298;51.252;6.802;2022-08-19T04:46:07;67.43;;;36.88;;
2576;SDS011;1298;51.252;6.802;2022-08-19T04:48:53;69.75;;;39.00;;
2576;SDS011;1298;51.252;6.802;2022-08-19T04:51:40;66.93;;;36.72;;
2576;SDS011;1298;51.252;6.802;2022-08-19T04:54:26;67.70;;;36.80;;
2576;SDS011;1298;51.252;6.802;2022-08-19T04:57:12;67.32;;;36.88;;
2576;SDS011;1298;51.252;6.802;2022-08-19T04:59:59;66.85;;;36.10;;
2576;SDS011;1298;51.252;6.802;2022-08-19T05:02:44;67.47;;;37.22;;
2576;SDS011;1298;51.252;6.802;2022-08-19T05:05:30;66.95;;;36.50;;
2576;SDS011;1298;51.252;6.802;2022-08-19T05:08:16;70.53;;;39.08;;
2576;SDS011;1298;51.252;6.802;2022-08-19T05:11:07;66.97;;;36.42;;
2576;SDS011;1298;51.252;6.802;2022-08-19T05:13:54;68.35;;;37.28;;
2576;SDS011;1298;51.252;6.802;2022-08-19T05:16:42;75.20;;;41.08;;
2576;SDS011;1298;51.252;6.802;2022-08-19T05:19:27;73.20;;;41.55;;
2576;SDS011;1298;51.252;6.802;2022-08-19T05:22:30;69.97;;;38.53;;
2576;SDS011;1298;51.252;6.802;2022-08-19T05:25:19;77.40;;;45.53;;
2576;SDS011;1298;51.252;6.802;2022-08-19T05:28:05;60.40;;;35.17;;
2576;SDS011;1298;51.252;6.802;2022-08-19T05:30:51;81.80;;;46.65;;
2576;SDS011;1298;51.252;6.802;2022-08-19T05:33:40;76.80;;;38.28;;
2576;SDS011;1298;51.252;6.802;2022-08-19T05:36:25;74.40;;;41.92;;
2576;SDS011;1298;51.252;6.802;2022-08-19T05:39:12;78.28;;;43.55;;
2576;SDS011;1298;51.252;6.802;2022-08-19T05:42:02;68.45;;;38.70;;
2576;SDS011;1298;51.252;6.802;2022-08-19T05:44:50;70.75;;;39.88;;
2576;SDS011;1298;51.252;6.802;2022-08-19T05:47:36;74.38;;;41.38;;
2576;SDS011;1298;51.252;6.802;2022-08-19T05:50:22;79.15;;;44.67;;
2576;SDS011;1298;51.252;6.802;2022-08-19T05:53:10;82.22;;;50.17;;
2576;SDS011;1298;51.252;6.802;2022-08-19T05:55:55;80.35;;;46.55;;
2576;SDS011;1298;51.252;6.802;2022-08-19T05:58:41;74.00;;;41.65;;
2576;SDS011;1298;51.252;6.802;2022-08-19T06:01:28;71.63;;;38.28;;
2576;SDS011;1298;51.252;6.802;2022-08-19T06:04:14;73.68;;;40.72;;
2576;SDS011;1298;51.252;6.802;2022-08-19T06:07:00;78.43;;;43.50;;
2576;SDS011;1298;51.252;6.802;2022-08-19T06:09:46;70.15;;;38.67;;
2576;SDS011;1298;51.252;6.802;2022-08-19T06:12:32;69.00;;;37.90;;
2576;SDS011;1298;51.252;6.802;2022-08-19T06:15:19;74.43;;;41.15;;
2576;SDS011;1298;51.252;6.802;2022-08-19T06:18:10;81.15;;;46.30;;
2576;SDS011;1298;51.252;6.802;2022-08-19T06:20:55;72.70;;;39.22;;
2576;SDS011;1298;51.252;6.802;2022-08-19T06:23:42;71.30;;;39.10;;
2576;SDS011;1298;51.252;6.802;2022-08-19T06:26:28;73.90;;;41.10;;
2576;SDS011;1298;51.252;6.802;2022-08-19T06:29:14;73.47;;;40.60;;
2576;SDS011;1298;51.252;6.802;2022-08-19T06:32:01;63.40;;;38.65;;
2576;SDS011;1298;51.252;6.802;2022-08-19T06:34:48;69.50;;;39.38;;
2576;SDS011;1298;51.252;6.802;2022-08-19T06:37:33;77.22;;;46.33;;
2576;SDS011;1298;51.252;6.802;2022-08-19T06:40:20;78.47;;;46.03;;
2576;SDS011;1298;51.252;6.802;2022-08-19T06:43:06;71.10;;;40.28;;
2576;SDS011;1298;51.252;6.802;2022-08-19T06:45:52;69.18;;;38.60;;
2576;SDS011;1298;51.252;6.802;2022-08-19T06:48:37;77.65;;;44.38;;
2576;SDS011;1298;51.252;6.802;2022-08-19T06:51:24;84.72;;;44.13;;
2576;SDS011;1298;51.252;6.802;2022-08-19T06:54:10;73.13;;;40.08;;
2576;SDS011;1298;51.252;6.802;2022-08-19T06:56:58;78.68;;;39.95;;
2576;SDS011;1298;51.252;6.802;2022-08-19T06:59:45;72.05;;;39.90;;
2576;SDS011;1298;51.252;6.802;2022-08-19T07:02:30;70.63;;;38.35;;
2576;SDS011;1298;51.252;6.802;2022-08-19T07:05:16;80.95;;;48.00;;
2576;SDS011;1298;51.252;6.802;2022-08-19T07:08:02;77.63;;;45.58;;
2576;SDS011;1298;51.252;6.802;2022-08-19T07:10:49;83.43;;;48.80;;
2576;SDS011;1298;51.252;6.802;2022-08-19T07:13:36;78.55;;;44.92;;
2576;SDS011;1298;51.252;6.802;2022-08-19T07:16:22;74.32;;;40.42;;
2576;SDS011;1298;51.252;6.802;2022-08-19T07:19:08;79.05;;;41.55;;
2576;SDS011;1298;51.252;6.802;2022-08-19T07:21:53;73.45;;;40.80;;
2576;SDS011;1298;51.252;6.802;2022-08-19T07:24:39;68.60;;;37.42;;
2576;SDS011;1298;51.252;6.802;2022-08-19T07:27:25;70.90;;;38.40;;
2576;SDS011;1298;51.252;6.802;2022-08-19T07:30:12;75.30;;;41.05;;
2576;SDS011;1298;51.252;6.802;2022-08-19T07:32:58;84.70;;;52.63;;
2576;SDS011;1298;51.252;6.802;2022-08-19T07:35:43;69.85;;;37.67;;
2576;SDS011;1298;51.252;6.802;2022-08-19T07:38:29;80.50;;;45.38;;
2576;SDS011;1298;51.252;6.802;2022-08-19T07:41:15;71.63;;;39.13;;
2576;SDS011;1298;51.252;6.802;2022-08-19T07:44:03;70.88;;;38.50;;
2576;SDS011;1298;51.252;6.802;2022-08-19T07:46:54;80.50;;;45.53;;
2576;SDS011;1298;51.252;6.802;2022-08-19T07:49:41;74.35;;;40.55;;
2576;SDS011;1298;51.252;6.802;2022-08-19T07:52:26;75.10;;;41.25;;
2576;SDS011;1298;51.252;6.802;2022-08-19T07:55:12;74.45;;;40.83;;
2576;SDS011;1298;51.252;6.802;2022-08-19T07:57:58;71.18;;;37.80;;
2576;SDS011;1298;51.252;6.802;2022-08-19T08:00:45;71.85;;;39.65;;
2576;SDS011;1298;51.252;6.802;2022-08-19T08:03:33;69.13;;;36.42;;
2576;SDS011;1298;51.252;6.802;2022-08-19T08:06:38;73.55;;;40.30;;
2576;SDS011;1298;51.252;6.802;2022-08-19T08:09:42;74.13;;;41.03;;
2576;SDS011;1298;51.252;6.802;2022-08-19T08:12:31;71.15;;;38.17;;
2576;SDS011;1298;51.252;6.802;2022-08-19T08:15:18;74.57;;;41.28;;
2576;SDS011;1298;51.252;6.802;2022-08-19T08:18:04;71.30;;;38.42;;
2576;SDS011;1298;51.252;6.802;2022-08-19T08:20:51;69.47;;;36.67;;
2576;SDS011;1298;51.252;6.802;2022-08-19T08:23:37;70.38;;;37.13;;
2576;SDS011;1298;51.252;6.802;2022-08-19T08:26:22;81.75;;;44.30;;
2576;SDS011;1298;51.252;6.802;2022-08-19T08:29:08;72.10;;;37.45;;
2576;SDS011;1298;51.252;6.802;2022-08-19T08:31:56;73.70;;;39.35;;
2576;SDS011;1298;51.252;6.802;2022-08-19T08:34:42;80.38;;;44.53;;
2576;SDS011;1298;51.252;6.802;2022-08-19T08:37:29;82.68;;;46.10;;
2576;SDS011;1298;51.252;6.802;2022-08-19T08:40:16;79.32;;;43.35;;
2576;SDS011;1298;51.252;6.802;2022-08-19T08:43:06;80.18;;;46.72;;
2576;SDS011;1298;51.252;6.802;2022-08-19T08:45:56;77.80;;;44.92;;
2576;SDS011;1298;51.252;6.802;2022-08-19T08:48:46;77.28;;;44.08;;
2576;SDS011;1298;51.252;6.802;2022-08-19T08:51:44;77.38;;;43.63;;
2576;SDS011;1298;51.252;6.802;2022-08-19T08:54:36;71.63;;;38.13;;
2576;SDS011;1298;51.252;6.802;2022-08-19T08:57:26;75.30;;;42.60;;
2576;SDS011;1298;51.252;6.802;2022-08-19T09:00:17;72.72;;;39.08;;
2576;SDS011;1298;51.252;6.802;2022-08-19T09:03:09;73.18;;;41.20;;
2576;SDS011;1298;51.252;6.802;2022-08-19T09:06:02;76.57;;;43.63;;
2576;SDS011;1298;51.252;6.802;2022-08-19T09:08:57;72.05;;;39.03;;
2576;SDS011;1298;51.252;6.802;2022-08-19T09:12:00;73.45;;;40.42;;
2576;SDS011;1298;51.252;6.802;2022-08-19T09:14:53;72.35;;;39.15;;
2576;SDS011;1298;51.252;6.802;2022-08-19T09:17:42;76.10;;;42.30;;
2576;SDS011;1298;51.252;6.802;2022-08-19T09:20:27;72.82;;;39.38;;
2576;SDS011;1298;51.252;6.802;2022-08-19T09:23:14;72.28;;;39.17;;
2576;SDS011;1298;51.252;6.802;2022-08-19T09:26:00;72.03;;;38.92;;
2576;SDS011;1298;51.252;6.802;2022-08-19T09:28:47;69.68;;;37.85;;
2576;SDS011;1298;51.252;6.802;2022-08-19T09:31:34;74.03;;;40.65;;
2576;SDS011;1298;51.252;6.802;2022-08-19T09:34:19;69.68;;;37.35;;
2576;SDS011;1298;51.252;6.802;2022-08-19T09:37:05;71.72;;;41.00;;
2576;SDS011;1298;51.252;6.802;2022-08-19T09:39:51;72.90;;;42.15;;
2576;SDS011;1298;51.252;6.802;2022-08-19T09:42:36;70.35;;;37.45;;
2576;SDS011;1298;51.252;6.802;2022-08-19T09:45:23;72.90;;;41.33;;
2576;SDS011;1298;51.252;6.802;2022-08-19T09:48:08;67.60;;;38.38;;
2576;SDS011;1298;51.252;6.802;2022-08-19T09:50:54;71.55;;;39.40;;
2576;SDS011;1298;51.252;6.802;2022-08-19T09:53:39;71.55;;;40.33;;
2576;SDS011;1298;51.252;6.802;2022-08-19T09:56:24;67.60;;;37.17;;
2576;SDS011;1298;51.252;6.802;2022-08-19T09:59:10;120.20;;;49.70;;
2576;SDS011;1298;51.252;6.802;2022-08-19T10:01:58;124.07;;;49.42;;
2576;SDS011;1298;51.252;6.802;2022-08-19T10:04:43;74.07;;;39.03;;
2576;SDS011;1298;51.252;6.802;2022-08-19T10:07:46;76.00;;;41.38;;
2576;SDS011;1298;51.252;6.802;2022-08-19T10:10:34;74.63;;;39.47;;
2576;SDS011;1298;51.252;6.802;2022-08-19T10:13:21;76.78;;;43.45;;
2576;SDS011;1298;51.252;6.802;2022-08-19T10:16:09;78.28;;;43.88;;
2576;SDS011;1298;51.252;6.802;2022-08-19T10:18:58;72.72;;;37.95;;
2576;SDS011;1298;51.252;6.802;2022-08-19T10:21:44;76.43;;;40.22;;
2576;SDS011;1298;51.252;6.802;2022-08-19T10:24:29;75.82;;;40.92;;
2576;SDS011;1298;51.252;6.802;2022-08-19T10:27:16;75.32;;;39.55;;
2576;SDS011;1298;51.252;6.802;2022-08-19T10:30:02;73.40;;;38.72;;
2576;SDS011;1298;51.252;6.802;2022-08-19T10:32:48;75.72;;;40.92;;
2576;SDS011;1298;51.252;6.802;2022-08-19T10:35:35;74.43;;;40.00;;
2576;SDS011;1298;51.252;6.802;2022-08-19T10:38:21;75.13;;;40.83;;
2576;SDS011;1298;51.252;6.802;2022-08-19T10:41:08;76.10;;;40.38;;
2576;SDS011;1298;51.252;6.802;2022-08-19T10:43:56;70.82;;;37.22;;
2576;SDS011;1298;51.252;6.802;2022-08-19T10:46:45;70.68;;;38.53;;
2576;SDS011;1298;51.252;6.802;2022-08-19T10:49:30;73.40;;;39.75;;
2576;SDS011;1298;51.252;6.802;2022-08-19T10:52:38;67.68;;;36.47;;
2576;SDS011;1298;51.252;6.802;2022-08-19T10:55:23;64.85;;;37.20;;
2576;SDS011;1298;51.252;6.802;2022-08-19T10:58:27;61.30;;;36.10;;
2576;SDS011;1298;51.252;6.802;2022-08-19T11:01:13;65.80;;;37.40;;
2576;SDS011;1298;51.252;6.802;2022-08-19T11:03:59;67.55;;;39.67;;
2576;SDS011;1298;51.252;6.802;2022-08-19T11:06:45;65.85;;;37.55;;
2576;SDS011;1298;51.252;6.802;2022-08-19T11:09:36;63.92;;;37.40;;
2576;SDS011;1298;51.252;6.802;2022-08-19T11:12:23;65.65;;;38.55;;
2576;SDS011;1298;51.252;6.802;2022-08-19T11:15:09;64.88;;;36.78;;
2576;SDS011;1298;51.252;6.802;2022-08-19T11:17:54;64.55;;;37.25;;
2576;SDS011;1298;51.252;6.802;2022-08-19T11:20:40;64.95;;;36.97;;
2576;SDS011;1298;51.252;6.802;2022-08-19T11:23:26;65.25;;;38.28;;
2576;SDS011;1298;51.252;6.802;2022-08-19T11:26:12;65.65;;;37.83;;
2576;SDS011;1298;51.252;6.802;2022-08-19T11:28:59;63.33;;;37.45;;
2576;SDS011;1298;51.252;6.802;2022-08-19T11:31:46;61.20;;;36.78;;
2576;SDS011;1298;51.252;6.802;2022-08-19T11:34:34;62.75;;;36.40;;
2576;SDS011;1298;51.252;6.802;2022-08-19T11:37:20;62.35;;;36.85;;
2576;SDS011;1298;51.252;6.802;2022-08-19T11:40:06;60.63;;;36.17;;
2576;SDS011;1298;51.252;6.802;2022-08-19T11:42:53;61.58;;;36.47;;
2576;SDS011;1298;51.252;6.802;2022-08-19T11:45:40;60.67;;;35.65;;
2576;SDS011;1298;51.252;6.802;2022-08-19T11:48:26;63.28;;;37.85;;
2576;SDS011;1298;51.252;6.802;2022-08-19T11:51:12;62.50;;;37.17;;
2576;SDS011;1298;51.252;6.802;2022-08-19T11:54:00;57.75;;;34.58;;
2576;SDS011;1298;51.252;6.802;2022-08-19T11:56:46;60.40;;;35.42;;
2576;SDS011;1298;51.252;6.802;2022-08-19T11:59:33;63.15;;;37.30;;
2576;SDS011;1298;51.252;6.802;2022-08-19T12:02:19;61.50;;;36.10;;
2576;SDS011;1298;51.252;6.802;2022-08-19T12:05:05;60.47;;;35.15;;
2576;SDS011;1298;51.252;6.802;2022-08-19T12:07:51;68.18;;;40.63;;
2576;SDS011;1298;51.252;6.802;2022-08-19T12:10:38;65.85;;;38.00;;
2576;SDS011;1298;51.252;6.802;2022-08-19T12:13:26;65.80;;;36.95;;
2576;SDS011;1298;51.252;6.802;2022-08-19T12:16:13;66.10;;;36.95;;
2576;SDS011;1298;51.252;6.802;2022-08-19T12:19:00;65.20;;;36.35;;
2576;SDS011;1298;51.252;6.802;2022-08-19T12:21:47;65.93;;;36.92;;
2576;SDS011;1298;51.252;6.802;2022-08-19T12:24:33;65.20;;;37.20;;
2576;SDS011;1298;51.252;6.802;2022-08-19T12:27:19;65.95;;;39.17;;
2576;SDS011;1298;51.252;6.802;2022-08-19T12:30:06;66.35;;;36.83;;
2576;SDS011;1298;51.252;6.802;2022-08-19T12:32:55;65.18;;;36.08;;
2576;SDS011;1298;51.252;6.802;2022-08-19T12:35:40;66.85;;;37.35;;
2576;SDS011;1298;51.252;6.802;2022-08-19T12:38:30;67.10;;;37.10;;
2576;SDS011;1298;51.252;6.802;2022-08-19T12:41:16;67.47;;;37.70;;
2576;SDS011;1298;51.252;6.802;2022-08-19T12:44:04;69.25;;;38.63;;
2576;SDS011;1298;51.252;6.802;2022-08-19T12:46:50;68.22;;;37.63;;
2576;SDS011;1298;51.252;6.802;2022-08-19T12:49:37;68.15;;;36.97;;
2576;SDS011;1298;51.252;6.802;2022-08-19T12:52:24;67.60;;;36.95;;
2576;SDS011;1298;51.252;6.802;2022-08-19T12:55:10;70.90;;;37.53;;
2576;SDS011;1298;51.252;6.802;2022-08-19T12:57:56;68.95;;;37.20;;
2576;SDS011;1298;51.252;6.802;2022-08-19T13:00:41;68.78;;;37.53;;
2576;SDS011;1298;51.252;6.802;2022-08-19T13:03:27;69.13;;;37.15;;
2576;SDS011;1298;51.252;6.802;2022-08-19T13:06:14;70.95;;;37.20;;
2576;SDS011;1298;51.252;6.802;2022-08-19T13:09:00;73.03;;;39.45;;
2576;SDS011;1298;51.252;6.802;2022-08-19T13:11:46;71.75;;;37.35;;
2576;SDS011;1298;51.252;6.802;2022-08-19T13:14:32;72.70;;;38.55;;
2576;SDS011;1298;51.252;6.802;2022-08-19T13:17:18;73.28;;;37.85;;
2576;SDS011;1298;51.252;6.802;2022-08-19T13:20:04;73.53;;;37.47;;
2576;SDS011;1298;51.252;6.802;2022-08-19T13:22:52;74.68;;;37.28;;
2576;SDS011;1298;51.252;6.802;2022-08-19T13:25:40;76.65;;;38.30;;
2576;SDS011;1298;51.252;6.802;2022-08-19T13:28:26;78.03;;;39.65;;
2576;SDS011;1298;51.252;6.802;2022-08-19T13:31:33;77.50;;;37.58;;
2576;SDS011;1298;51.252;6.802;2022-08-19T13:34:37;76.05;;;38.63;;
2576;SDS011;1298;51.252;6.802;2022-08-19T13:37:23;86.03;;;44.53;;
2576;SDS011;1298;51.252;6.802;2022-08-19T13:40:24;88.25;;;45.47;;
2576;SDS011;1298;51.252;6.802;2022-08-19T13:43:10;88.43;;;44.72;;
2576;SDS011;1298;51.252;6.802;2022-08-19T13:45:56;91.32;;;44.00;;
2576;SDS011;1298;51.252;6.802;2022-08-19T13:48:41;88.75;;;42.75;;
2576;SDS011;1298;51.252;6.802;2022-08-19T13:51:27;90.40;;;46.08;;
2576;SDS011;1298;51.252;6.802;2022-08-19T13:54:12;90.85;;;46.42;;
2576;SDS011;1298;51.252;6.802;2022-08-19T13:56:59;91.75;;;45.97;;
2576;SDS011;1298;51.252;6.802;2022-08-19T13:59:45;92.10;;;47.28;;
2576;SDS011;1298;51.252;6.802;2022-08-19T14:02:31;88.40;;;45.03;;
2576;SDS011;1298;51.252;6.802;2022-08-19T14:05:16;86.70;;;43.35;;
2576;SDS011;1298;51.252;6.802;2022-08-19T14:08:03;98.05;;;45.47;;
2576;SDS011;1298;51.252;6.802;2022-08-19T14:10:48;91.65;;;44.55;;
2576;SDS011;1298;51.252;6.802;2022-08-19T14:13:35;85.82;;;42.05;;
2576;SDS011;1298;51.252;6.802;2022-08-19T14:16:21;89.78;;;46.17;;
2576;SDS011;1298;51.252;6.802;2022-08-19T14:19:06;88.95;;;44.75;;
2576;SDS011;1298;51.252;6.802;2022-08-19T14:21:52;92.65;;;45.65;;
2576;SDS011;1298;51.252;6.802;2022-08-19T14:24:37;92.82;;;44.75;;
2576;SDS011;1298;51.252;6.802;2022-08-19T14:27:24;89.60;;;43.65;;
2576;SDS011;1298;51.252;6.802;2022-08-19T14:30:12;89.00;;;46.92;;
2576;SDS011;1298;51.252;6.802;2022-08-19T14:33:00;86.00;;;45.38;;
2576;SDS011;1298;51.252;6.802;2022-08-19T14:35:46;88.03;;;45.53;;
2576;SDS011;1298;51.252;6.802;2022-08-19T14:38:32;87.53;;;44.63;;
2576;SDS011;1298;51.252;6.802;2022-08-19T14:41:18;91.00;;;44.97;;
2576;SDS011;1298;51.252;6.802;2022-08-19T14:44:05;85.43;;;43.55;;
2576;SDS011;1298;51.252;6.802;2022-08-19T14:46:51;89.68;;;45.42;;
2576;SDS011;1298;51.252;6.802;2022-08-19T14:49:37;90.03;;;45.30;;
2576;SDS011;1298;51.252;6.802;2022-08-19T14:52:24;87.68;;;44.15;;
2576;SDS011;1298;51.252;6.802;2022-08-19T14:55:09;86.22;;;43.97;;
2576;SDS011;1298;51.252;6.802;2022-08-19T14:57:55;86.70;;;43.25;;
2576;SDS011;1298;51.252;6.802;2022-08-19T15:00:40;83.38;;;42.03;;
2576;SDS011;1298;51.252;6.802;2022-08-19T15:03:28;82.10;;;41.35;;
2576;SDS011;1298;51.252;6.802;2022-08-19T15:06:13;80.05;;;43.63;;
2576;SDS011;1298;51.252;6.802;2022-08-19T15:09:00;86.15;;;45.05;;
2576;SDS011;1298;51.252;6.802;2022-08-19T15:11:46;87.43;;;46.58;;
2576;SDS011;1298;51.252;6.802;2022-08-19T15:14:35;85.22;;;46.75;;
2576;SDS011;1298;51.252;6.802;2022-08-19T15:17:21;74.88;;;39.13;;
2576;SDS011;1298;51.252;6.802;2022-08-19T15:20:10;74.95;;;38.35;;
2576;SDS011;1298;51.252;6.802;2022-08-19T15:22:57;79.00;;;38.20;;
2576;SDS011;1298;51.252;6.802;2022-08-19T15:25:43;88.40;;;45.47;;
2576;SDS011;1298;51.252;6.802;2022-08-19T15:28:29;87.15;;;45.30;;
2576;SDS011;1298;51.252;6.802;2022-08-19T15:31:16;85.72;;;44.05;;
2576;SDS011;1298;51.252;6.802;2022-08-19T15:34:03;83.70;;;43.72;;
2576;SDS011;1298;51.252;6.802;2022-08-19T15:36:51;84.28;;;44.75;;
2576;SDS011;1298;51.252;6.802;2022-08-19T15:39:36;82.72;;;43.55;;
2576;SDS011;1298;51.252;6.802;2022-08-19T15:42:22;72.70;;;39.58;;
2576;SDS011;1298;51.252;6.802;2022-08-19T15:45:10;71.68;;;39.40;;
2576;SDS011;1298;51.252;6.802;2022-08-19T15:47:56;71.95;;;38.35;;
2576;SDS011;1298;51.252;6.802;2022-08-19T15:50:41;79.30;;;38.47;;
2576;SDS011;1298;51.252;6.802;2022-08-19T15:53:29;85.15;;;40.50;;
2576;SDS011;1298;51.252;6.802;2022-08-19T15:56:14;95.28;;;47.17;;
2576;SDS011;1298;51.252;6.802;2022-08-19T15:59:00;84.60;;;43.58;;
2576;SDS011;1298;51.252;6.802;2022-08-19T16:02:04;72.50;;;40.25;;
2576;SDS011;1298;51.252;6.802;2022-08-19T16:05:08;68.22;;;38.45;;
2576;SDS011;1298;51.252;6.802;2022-08-19T16:08:14;61.55;;;37.33;;
2576;SDS011;1298;51.252;6.802;2022-08-19T16:11:01;61.10;;;35.75;;
2576;SDS011;1298;51.252;6.802;2022-08-19T16:13:46;59.40;;;35.45;;
2576;SDS011;1298;51.252;6.802;2022-08-19T16:16:34;56.65;;;34.13;;
2576;SDS011;1298;51.252;6.802;2022-08-19T16:19:21;53.15;;;32.40;;
2576;SDS011;1298;51.252;6.802;2022-08-19T16:22:07;60.05;;;35.22;;
2576;SDS011;1298;51.252;6.802;2022-08-19T16:24:53;56.05;;;33.05;;
2576;SDS011;1298;51.252;6.802;2022-08-19T16:27:39;58.42;;;34.28;;
2576;SDS011;1298;51.252;6.802;2022-08-19T16:30:25;63.45;;;37.75;;
2576;SDS011;1298;51.252;6.802;2022-08-19T16:33:10;56.50;;;33.05;;
2576;SDS011;1298;51.252;6.802;2022-08-19T16:35:56;53.10;;;31.98;;
2576;SDS011;1298;51.252;6.802;2022-08-19T16:38:42;53.40;;;32.22;;
2576;SDS011;1298;51.252;6.802;2022-08-19T16:41:29;53.83;;;32.55;;
2576;SDS011;1298;51.252;6.802;2022-08-19T16:44:16;57.10;;;34.30;;
2576;SDS011;1298;51.252;6.802;2022-08-19T16:47:03;53.20;;;32.72;;
2576;SDS011;1298;51.252;6.802;2022-08-19T16:49:49;49.17;;;31.85;;